Time;durP1;ratioP1;P1;durP2;ratioP2;P2;SDS_P1;SDS_P2;PMS_P1;PMS_P2;Temp;Humidity;BMP_temperature;BMP_pressure;BME280_temperature;BME280_humidity;BME280_pressure;Samples;Min_cycle;Max_cycle;Signal;HPM_P1;HPM_P2
2021/12/18 00:00:07;;;;;;;;;;;;;;;;;;5076787;28;1430;-86
2021/12/18 00:02:32;;;;;;;;;;;;;;;;;;5090526;28;1582;-87
2021/12/18 00:04:57;;;;;;;;;;;;;;;;;;5086089;28;1453;-85
2021/12/18 00:07:22;;;;;;;;;;;;;;;;;;5073209;28;1894;-87
2021/12/18 00:09:48;;;;;;;;;;;;;;;;;;5076060;28;1263;-86
2021/12/18 00:12:13;;;;;;;;;;;;;;;;;;5077633;28;1449;-87
2021/12/18 00:14:38;;;;;;;;;;;;;;;;;;5078629;28;1391;-86
2021/12/18 00:17:03;;;;;;;;;;;;;;;;;;5076222;28;1326;-87
2021/12/18 00:19:28;;;;;;;;;;;;;;;;;;5082419;28;1672;-86
2021/12/18 00:21:53;;;;;;;;;;;;;;;;;;5090253;28;1512;-87
2021/12/18 00:24:19;;;;;;;;;;;;;;;;;;5079253;28;1772;-87
2021/12/18 00:26:44;;;;;;;;;;;;;;;;;;5082239;28;1886;-87
2021/12/18 00:29:09;;;;;;;;;;;;;;;;;;5095398;28;1563;-86
2021/12/18 00:31:34;;;;;;;;;;;;;;;;;;5075872;28;1325;-87
2021/12/18 00:33:59;;;;;;;;;;;;;;;;;;5075539;28;1289;-86
2021/12/18 00:36:24;;;;;;;;;;;;;;;;;;5094974;28;1608;-86
2021/12/18 00:38:49;;;;;;;;;;;;;;;;;;5095776;28;1186;-86
2021/12/18 00:41:28;;;;;;;;;;;;;;;;;;5082489;28;1736;-87
2021/12/18 00:44:03;;;;;;;;;;;;;;;;;;5086661;28;1627;-88
2021/12/18 00:46:28;;;;;;;;;;;;;;;;;;5075087;28;1890;-88
2021/12/18 00:48:53;;;;;;;;;;;;;;;;;;5074992;28;1273;-87
2021/12/18 00:51:18;;;;;;;;;;;;;;;;;;5078667;28;1663;-87
2021/12/18 00:53:43;;;;;;;;;;;;;;;;;;5095406;28;1190;-88
2021/12/18 00:56:08;;;;;;;;;;;;;;;;;;5095239;28;1170;-86
2021/12/18 00:58:33;;;;;;;;;;;;;;;;;;5095801;28;1606;-86
2021/12/18 01:00:58;;;;;;;;;;;;;;;;;;5094628;28;1697;-87
2021/12/18 01:03:23;;;;;;;;;;;;;;;;;;5074943;28;1277;-87
2021/12/18 01:05:48;;;;;;;;;;;;;;;;;;5081603;28;1442;-87
2021/12/18 01:08:13;;;;;;;;;;;;;;;;;;5094980;28;1890;-86
2021/12/18 01:13:18;;;;;;;;;;;;;;;;;;5082614;28;1563;-87
2021/12/18 01:15:48;;;;;;;;;;;;;;;;;;5094972;28;1303;-87
2021/12/18 01:23:41;;;;;;;;;;;;;;;;;;5096097;28;614;-87
2021/12/18 01:26:06;;;;;;;;;;;;;;;;;;5096115;28;1886;-87
2021/12/18 01:28:31;;;;;;;;;;;;;;;;;;5091969;28;1436;-87
2021/12/18 01:30:56;;;;;;;;;;;;;;;;;;5088346;28;1665;-87
2021/12/18 01:33:22;;;;;;;;;;;;;;;;;;5081169;28;1673;-87
2021/12/18 01:35:47;;;;;;;;;;;;;;;;;;5079710;28;1621;-87
2021/12/18 01:38:12;;;;;;;;;;;;;;;;;;5082408;28;1603;-87
2021/12/18 01:40:37;;;;;;;;;;;;;;;;;;5076465;28;1559;-87
2021/12/18 01:46:09;;;;;;;;;;;;;;;;;;5079133;28;1409;-87
2021/12/18 01:51:22;;;;;;;;;;;;;;;;;;5075450;28;1353;-87
2021/12/18 01:53:47;;;;;;;;;;;;;;;;;;5074008;28;1303;-86
2021/12/18 01:56:12;;;;;;;;;;;;;;;;;;5073811;28;1169;-87
2021/12/18 01:58:37;;;;;;;;;;;;;;;;;;5073663;28;1309;-87
2021/12/18 02:01:03;;;;;;;;;;;;;;;;;;5073667;28;1231;-86
2021/12/18 02:03:28;;;;;;;;;;;;;;;;;;5083144;28;1654;-87
2021/12/18 02:05:53;;;;;;;;;;;;;;;;;;5080946;28;1583;-87
2021/12/18 02:08:18;;;;;;;;;;;;;;;;;;5075750;28;1893;-87
2021/12/18 02:10:47;;;;;;;;;;;;;;;;;;5093680;28;1385;-87
2021/12/18 02:21:22;;;;;;;;;;;;;;;;;;5094815;28;1246;-88
2021/12/18 02:23:47;;;;;;;;;;;;;;;;;;5075532;28;1611;-87
2021/12/18 02:26:12;;;;;;;;;;;;;;;;;;5091450;28;1886;-87
2021/12/18 02:28:38;;;;;;;;;;;;;;;;;;5088729;28;1587;-87
2021/12/18 02:31:03;;;;;;;;;;;;;;;;;;5072301;28;1226;-90
2021/12/18 02:33:28;;;;;;;;;;;;;;;;;;5074558;28;840;-88
2021/12/18 02:35:56;;;;;;;;;;;;;;;;;;5086726;28;1517;-89
2021/12/18 02:38:23;;;;;;;;;;;;;;;;;;5093137;28;1230;-88
2021/12/18 02:43:22;;;;;;;;;;;;;;;;;;5078806;28;1484;-89
2021/12/18 02:45:47;;;;;;;;;;;;;;;;;;5093113;28;1219;-89
2021/12/18 02:48:12;;;;;;;;;;;;;;;;;;5083565;28;1955;-88
2021/12/18 02:50:38;;;;;;;;;;;;;;;;;;5084055;28;1605;-88
2021/12/18 02:53:03;;;;;;;;;;;;;;;;;;5075331;28;1618;-88
2021/12/18 02:55:28;;;;;;;;;;;;;;;;;;5073941;28;1547;-88
2021/12/18 02:57:53;;;;;;;;;;;;;;;;;;5088014;28;1641;-89
2021/12/18 03:00:20;;;;;;;;;;;;;;;;;;5085309;28;1538;-89
2021/12/18 03:02:45;;;;;;;;;;;;;;;;;;5088521;28;1613;-86
2021/12/18 03:05:15;;;;;;;;;;;;;;;;;;5087198;28;1636;-84
2021/12/18 03:07:40;;;;;;;;;;;;;;;;;;5086190;28;1937;-86
2021/12/18 03:23:31;;;;;;;;;;;;;;;;;;5094764;28;1203;-89
2021/12/18 03:26:00;;;;;;;;;;;;;;;;;;5094087;28;1412;-89
2021/12/18 03:28:25;;;;;;;;;;;;;;;;;;5079190;28;1933;-88
2021/12/18 03:30:50;;;;;;;;;;;;;;;;;;5073897;28;1310;-89
2021/12/18 03:33:15;;;;;;;;;;;;;;;;;;5077293;28;1531;-89
2021/12/18 03:35:40;;;;;;;;;;;;;;;;;;5092568;28;1562;-89
2021/12/18 03:38:05;;;;;;;;;;;;;;;;;;5092664;28;1412;-87
2021/12/18 03:40:30;;;;;;;;;;;;;;;;;;5091589;28;1629;-90
2021/12/18 03:42:55;;;;;;;;;;;;;;;;;;5072097;28;1217;-89
2021/12/18 03:45:20;;;;;;;;;;;;;;;;;;5084023;28;1599;-89
2021/12/18 03:47:46;;;;;;;;;;;;;;;;;;5091590;28;1963;-87
2021/12/18 03:50:11;;;;;;;;;;;;;;;;;;5091029;28;1537;-89
2021/12/18 03:52:36;;;;;;;;;;;;;;;;;;5092192;28;1369;-88
2021/12/18 03:55:01;;;;;;;;;;;;;;;;;;5080790;28;1295;-88
2021/12/18 03:57:26;;;;;;;;;;;;;;;;;;5072109;28;1273;-86
2021/12/18 03:59:51;;;;;;;;;;;;;;;;;;5072013;28;1301;-89
2021/12/18 04:02:16;;;;;;;;;;;;;;;;;;5071889;28;1732;-86
2021/12/18 04:04:41;;;;;;;;;;;;;;;;;;5084824;28;1485;-89
2021/12/18 04:07:07;;;;;;;;;;;;;;;;;;5077555;28;1882;-86
2021/12/18 04:09:33;;;;;;;;;;;;;;;;;;5081150;28;1650;-89
2021/12/18 04:11:59;;;;;;;;;;;;;;;;;;5079705;28;1799;-88
2021/12/18 04:14:24;;;;;;;;;;;;;;;;;;5088667;28;1431;-89
2021/12/18 04:16:49;;;;;;;;;;;;;;;;;;5089465;28;1428;-88
2021/12/18 04:19:14;;;;;;;;;;;;;;;;;;5071926;28;1489;-88
2021/12/18 04:21:39;;;;;;;;;;;;;;;;;;5073155;28;1330;-88
2021/12/18 04:24:04;;;;;;;;;;;;;;;;;;5071943;28;1330;-89
2021/12/18 04:26:29;;;;;;;;;;;;;;;;;;5071903;28;1890;-86
2021/12/18 04:28:54;;;;;;;;;;;;;;;;;;5071511;28;1294;-87
2021/12/18 04:31:19;;;;;;;;;;;;;;;;;;5080899;28;1612;-87
2021/12/18 04:33:44;;;;;;;;;;;;;;;;;;5108418;28;1254;-87
2021/12/18 04:36:09;;;;;;;;;;;;;;;;;;5112367;28;1294;-87
2021/12/18 04:38:34;;;;;;;;;;;;;;;;;;5097096;28;1594;-87
2021/12/18 04:40:59;;;;;;;;;;;;;;;;;;5090029;28;1603;-86
2021/12/18 04:43:24;;;;;;;;;;;;;;;;;;5091813;28;1322;-87
2021/12/18 04:45:49;;;;;;;;;;;;;;;;;;5091166;28;1615;-86
2021/12/18 04:48:14;;;;;;;;;;;;;;;;;;5072755;28;1901;-86
2021/12/18 04:50:40;;;;;;;;;;;;;;;;;;5075540;28;1808;-86
2021/12/18 04:53:05;;;;;;;;;;;;;;;;;;5091696;28;1275;-87
2021/12/18 04:55:30;;;;;;;;;;;;;;;;;;5094643;28;1348;-86
2021/12/18 04:57:55;;;;;;;;;;;;;;;;;;5093289;28;1532;-87
2021/12/18 05:00:20;;;;;;;;;;;;;;;;;;5096516;28;852;-86
2021/12/18 05:02:47;;;;;;;;;;;;;;;;;;5075204;28;1659;-86
2021/12/18 05:05:13;;;;;;;;;;;;;;;;;;5074961;28;1338;-87
2021/12/18 05:07:38;;;;;;;;;;;;;;;;;;5074891;28;1897;-86
2021/12/18 05:10:03;;;;;;;;;;;;;;;;;;5074441;28;1148;-87
2021/12/18 05:12:28;;;;;;;;;;;;;;;;;;5076002;28;1574;-87
2021/12/18 05:14:53;;;;;;;;;;;;;;;;;;5076072;28;1027;-88
2021/12/18 05:17:18;;;;;;;;;;;;;;;;;;5075901;28;733;-87
2021/12/18 05:19:43;;;;;;;;;;;;;;;;;;5075442;28;1453;-87
2021/12/18 05:22:08;;;;;;;;;;;;;;;;;;5075284;28;1680;-86
2021/12/18 05:24:33;;;;;;;;;;;;;;;;;;5110459;23;2000;-89
2021/12/18 05:26:58;;;;;;;;;;;;;;;;;;5070455;28;1914;-89
2021/12/18 05:29:24;;;;;;;;;;;;;;;;;;5075592;28;1018;-88
2021/12/18 05:31:49;;;;;;;;;;;;;;;;;;5074886;28;1517;-88
2021/12/18 05:34:21;;;;;;;;;;;;;;;;;;5083994;28;1450;-88
2021/12/18 05:39:20;;;;;;;;;;;;;;;;;;5096926;28;934;-88
2021/12/18 05:41:47;;;;;;;;;;;;;;;;;;5095435;28;1218;-88
2021/12/18 05:44:12;;;;;;;;;;;;;;;;;;5095407;28;1678;-88
2021/12/18 05:46:37;;;;;;;;;;;;;;;;;;5097418;28;1863;-88
2021/12/18 05:49:05;;;;;;;;;;;;;;;;;;5096575;28;1417;-88
2021/12/18 05:51:30;;;;;;;;;;;;;;;;;;5097868;28;1173;-89
2021/12/18 05:53:55;;;;;;;;;;;;;;;;;;5094429;28;1485;-88
2021/12/18 05:56:20;;;;;;;;;;;;;;;;;;5094730;28;1570;-89
2021/12/18 05:58:45;;;;;;;;;;;;;;;;;;5075719;28;1686;-89
2021/12/18 06:01:11;;;;;;;;;;;;;;;;;;5094824;28;1452;-89
2021/12/18 06:03:36;;;;;;;;;;;;;;;;;;5094329;28;1591;-89
2021/12/18 06:06:01;;;;;;;;;;;;;;;;;;5094565;28;1245;-89
2021/12/18 06:08:26;;;;;;;;;;;;;;;;;;5093921;28;1877;-89
2021/12/18 06:10:52;;;;;;;;;;;;;;;;;;5095692;28;1623;-88
2021/12/18 06:13:17;;;;;;;;;;;;;;;;;;5094400;28;1255;-89
2021/12/18 06:15:42;;;;;;;;;;;;;;;;;;5094348;28;1280;-89
2021/12/18 06:18:07;;;;;;;;;;;;;;;;;;5094177;28;1575;-89
2021/12/18 06:20:32;;;;;;;;;;;;;;;;;;5094267;28;1264;-90
2021/12/18 06:22:57;;;;;;;;;;;;;;;;;;5094226;28;1207;-89
2021/12/18 06:25:22;;;;;;;;;;;;;;;;;;5094002;28;1267;-88
2021/12/18 06:27:47;;;;;;;;;;;;;;;;;;5094003;28;1893;-88
2021/12/18 06:30:12;;;;;;;;;;;;;;;;;;5093689;28;1697;-88
2021/12/18 06:32:37;;;;;;;;;;;;;;;;;;5094235;28;1250;-88
2021/12/18 06:35:02;;;;;;;;;;;;;;;;;;5085291;28;1275;-90
2021/12/18 06:37:27;;;;;;;;;;;;;;;;;;5073770;28;1072;-90
2021/12/18 06:39:52;;;;;;;;;;;;;;;;;;5076894;28;1717;-87
2021/12/18 06:42:18;;;;;;;;;;;;;;;;;;5093668;28;1334;-87
2021/12/18 06:44:43;;;;;;;;;;;;;;;;;;5094760;28;1288;-88
2021/12/18 06:47:08;;;;;;;;;;;;;;;;;;5094824;28;1882;-88
2021/12/18 06:49:33;;;;;;;;;;;;;;;;;;5093476;28;1299;-88
2021/12/18 06:51:58;;;;;;;;;;;;;;;;;;5093697;28;1646;-88
2021/12/18 06:54:24;;;;;;;;;;;;;;;;;;5090351;28;1291;-88
2021/12/18 06:56:49;;;;;;;;;;;;;;;;;;5073270;28;1217;-88
2021/12/18 06:59:14;;;;;;;;;;;;;;;;;;5085530;28;1615;-88
2021/12/18 07:01:39;;;;;;;;;;;;;;;;;;5093979;28;1182;-88
2021/12/18 07:04:04;;;;;;;;;;;;;;;;;;5093239;28;1690;-88
2021/12/18 07:06:30;;;;;;;;;;;;;;;;;;5093364;28;1886;-88
2021/12/18 07:08:55;;;;;;;;;;;;;;;;;;5093385;28;1258;-88
2021/12/18 07:11:20;;;;;;;;;;;;;;;;;;5093365;28;1384;-88
2021/12/18 07:13:45;;;;;;;;;;;;;;;;;;5093203;28;1272;-88
2021/12/18 07:16:10;;;;;;;;;;;;;;;;;;5094437;28;816;-89
2021/12/18 07:18:35;;;;;;;;;;;;;;;;;;5092910;28;1225;-89
2021/12/18 07:21:00;;;;;;;;;;;;;;;;;;5093043;28;1201;-88
2021/12/18 07:23:25;;;;;;;;;;;;;;;;;;5092989;28;1348;-88
2021/12/18 07:25:50;;;;;;;;;;;;;;;;;;5093386;28;1279;-89
2021/12/18 07:28:15;;;;;;;;;;;;;;;;;;5093183;28;1969;-89
2021/12/18 07:30:40;;;;;;;;;;;;;;;;;;5094485;28;1284;-88
2021/12/18 07:33:10;;;;;;;;;;;;;;;;;;5094790;28;1221;-88
2021/12/18 07:35:35;;;;;;;;;;;;;;;;;;5095425;28;1274;-88
2021/12/18 07:38:00;;;;;;;;;;;;;;;;;;5095431;28;1174;-88
2021/12/18 07:40:25;;;;;;;;;;;;;;;;;;5097136;28;1333;-88
2021/12/18 07:42:50;;;;;;;;;;;;;;;;;;5097311;28;1186;-88
2021/12/18 07:45:15;;;;;;;;;;;;;;;;;;5100521;28;1248;-89
2021/12/18 07:47:40;;;;;;;;;;;;;;;;;;5097463;28;1916;-88
2021/12/18 07:50:09;;;;;;;;;;;;;;;;;;5094554;28;1221;-88
2021/12/18 07:52:36;;;;;;;;;;;;;;;;;;5094146;28;1336;-89
2021/12/18 07:55:01;;;;;;;;;;;;;;;;;;5093964;28;1303;-89
2021/12/18 07:57:26;;;;;;;;;;;;;;;;;;5093845;28;1375;-89
2021/12/18 07:59:51;;;;;;;;;;;;;;;;;;5093932;28;1190;-88
2021/12/18 08:02:16;;;;;;;;;;;;;;;;;;5095624;28;1190;-89
2021/12/18 08:04:41;;;;;;;;;;;;;;;;;;5097817;28;1173;-88
2021/12/18 08:07:06;;;;;;;;;;;;;;;;;;5095636;28;1890;-88
2021/12/18 08:09:32;;;;;;;;;;;;;;;;;;5077569;28;1682;-87
2021/12/18 08:11:57;;;;;;;;;;;;;;;;;;5075492;28;1303;-88
2021/12/18 08:14:22;;;;;;;;;;;;;;;;;;5077329;28;1200;-88
2021/12/18 08:16:48;;;;;;;;;;;;;;;;;;5081240;28;1505;-88
2021/12/18 08:19:13;;;;;;;;;;;;;;;;;;5097767;28;1140;-88
2021/12/18 08:21:38;;;;;;;;;;;;;;;;;;5095795;28;1290;-87
2021/12/18 08:24:03;;;;;;;;;;;;;;;;;;5096248;28;1213;-88
2021/12/18 08:26:28;;;;;;;;;;;;;;;;;;5092007;28;1902;-89
2021/12/18 08:28:53;;;;;;;;;;;;;;;;;;5097263;28;1026;-87
2021/12/18 08:31:18;;;;;;;;;;;;;;;;;;5102544;28;1457;-88
2021/12/18 08:33:43;;;;;;;;;;;;;;;;;;5102907;28;1559;-87
2021/12/18 08:36:08;;;;;;;;;;;;;;;;;;5103359;28;1481;-87
2021/12/18 08:38:33;;;;;;;;;;;;;;;;;;5100506;28;1162;-88
2021/12/18 08:40:58;;;;;;;;;;;;;;;;;;5099665;28;1640;-88
2021/12/18 08:43:24;;;;;;;;;;;;;;;;;;5101663;28;1668;-87
2021/12/18 08:45:49;;;;;;;;;;;;;;;;;;5102412;28;1633;-88
2021/12/18 08:48:14;;;;;;;;;;;;;;;;;;5104617;28;1920;-87
2021/12/18 08:50:39;;;;;;;;;;;;;;;;;;5103059;28;1204;-88
2021/12/18 08:53:04;;;;;;;;;;;;;;;;;;5102980;28;1566;-87
2021/12/18 08:55:29;;;;;;;;;;;;;;;;;;5104295;28;1512;-88
2021/12/18 08:57:54;;;;;;;;;;;;;;;;;;5114370;28;1250;-88
2021/12/18 09:00:19;;;;;;;;;;;;;;;;;;5124348;28;1090;-87
2021/12/18 09:02:44;;;;;;;;;;;;;;;;;;5087929;28;1479;-88
2021/12/18 09:05:09;;;;;;;;;;;;;;;;;;5102153;28;1528;-87
2021/12/18 09:07:35;;;;;;;;;;;;;;;;;;5104506;28;1955;-87
2021/12/18 09:10:00;;;;;;;;;;;;;;;;;;5103144;28;1190;-87
2021/12/18 09:12:25;;;;;;;;;;;;;;;;;;5104329;28;1292;-88
2021/12/18 09:14:50;;;;;;;;;;;;;;;;;;5102476;28;1658;-87
2021/12/18 09:17:15;;;;;;;;;;;;;;;;;;5105451;28;1026;-88
2021/12/18 09:19:40;;;;;;;;;;;;;;;;;;5102342;28;1325;-88
2021/12/18 09:22:06;;;;;;;;;;;;;;;;;;5104610;28;1591;-88
2021/12/18 09:24:31;;;;;;;;;;;;;;;;;;5101990;28;1222;-88
2021/12/18 09:26:56;;;;;;;;;;;;;;;;;;5102344;28;1875;-87
2021/12/18 09:29:21;;;;;;;;;;;;;;;;;;5103358;28;1356;-88
2021/12/18 09:31:46;;;;;;;;;;;;;;;;;;5102395;28;1642;-87
2021/12/18 09:34:12;;;;;;;;;;;;;;;;;;5099858;28;1647;-86
2021/12/18 09:36:37;;;;;;;;;;;;;;;;;;5101916;28;1574;-86
2021/12/18 09:39:02;;;;;;;;;;;;;;;;;;5113448;28;1232;-87
2021/12/18 09:41:27;;;;;;;;;;;;;;;;;;5120112;28;1326;-87
2021/12/18 09:43:52;;;;;;;;;;;;;;;;;;5118116;28;1162;-85
2021/12/18 09:46:17;;;;;;;;;;;;;;;;;;5117973;28;1340;-86
2021/12/18 09:48:42;;;;;;;;;;;;;;;;;;5117513;28;1956;-88
2021/12/18 09:51:09;;;;;;;;;;;;;;;;;;5118083;28;1138;-85
2021/12/18 09:53:34;;;;;;;;;;;;;;;;;;5119321;28;1349;-85
2021/12/18 09:55:59;;;;;;;;;;;;;;;;;;5119996;28;1395;-87
2021/12/18 09:58:25;;;;;;;;;;;;;;;;;;5120783;28;911;-87
2021/12/18 10:00:50;;;;;;;;;;;;;;;;;;5109812;27;1321;-88
2021/12/18 10:03:15;;;;;;;;;;;;;;;;;;5096588;28;1559;-86
2021/12/18 10:05:40;;;;;;;;;;;;;;;;;;5096725;28;1212;-86
2021/12/18 10:08:05;;;;;;;;;;;;;;;;;;5098263;28;1906;-87
2021/12/18 10:10:30;;;;;;;;;;;;;;;;;;5098781;28;1472;-86
2021/12/18 10:12:55;;;;;;;;;;;;;;;;;;5098544;28;1397;-86
2021/12/18 10:15:20;;;;;;;;;;;;;;;;;;5097725;28;1192;-85
2021/12/18 10:17:45;;;;;;;;;;;;;;;;;;5096791;28;1658;-84
2021/12/18 10:20:10;;;;;;;;;;;;;;;;;;5097790;28;1603;-84
2021/12/18 10:22:35;;;;;;;;;;;;;;;;;;5097341;28;1547;-86
2021/12/18 10:25:00;;;;;;;;;;;;;;;;;;5097544;28;1258;-86
2021/12/18 10:27:29;;;;;;;;;;;;;;;;;;5098675;28;1949;-86
2021/12/18 10:29:54;;;;;;;;;;;;;;;;;;5098951;28;1429;-87
2021/12/18 10:32:19;;;;;;;;;;;;;;;;;;5097497;28;1264;-88
2021/12/18 10:34:44;;;;;;;;;;;;;;;;;;5096587;28;1363;-88
2021/12/18 10:37:09;;;;;;;;;;;;;;;;;;5096263;28;1308;-87
2021/12/18 10:39:34;;;;;;;;;;;;;;;;;;5096782;28;1143;-86
2021/12/18 10:41:59;;;;;;;;;;;;;;;;;;5097219;28;1256;-86
2021/12/18 10:44:24;;;;;;;;;;;;;;;;;;5097823;28;1270;-87
2021/12/18 10:46:49;;;;;;;;;;;;;;;;;;5096904;28;1894;-87
2021/12/18 10:49:14;;;;;;;;;;;;;;;;;;5097966;28;1465;-87
2021/12/18 10:51:39;;;;;;;;;;;;;;;;;;5096161;28;1166;-87
2021/12/18 10:54:04;;;;;;;;;;;;;;;;;;5096989;28;1318;-86
2021/12/18 10:56:29;;;;;;;;;;;;;;;;;;5096683;28;1476;-86
2021/12/18 10:58:54;;;;;;;;;;;;;;;;;;5099003;28;833;-87
2021/12/18 11:01:21;;;;;;;;;;;;;;;;;;5099004;28;1002;-87
2021/12/18 11:03:46;;;;;;;;;;;;;;;;;;5096329;28;1498;-87
2021/12/18 11:06:11;;;;;;;;;;;;;;;;;;5096310;28;1425;-87
2021/12/18 11:08:38;;;;;;;;;;;;;;;;;;5097673;28;1886;-86
2021/12/18 11:13:38;;;;;;;;;;;;;;;;;;5096927;28;1222;-87
2021/12/18 11:13:48;;;;;;;;;;;;;;;;;;5098591;28;1357;-87
2021/12/18 11:16:13;;;;;;;;;;;;;;;;;;5097869;28;1265;-86
2021/12/18 11:18:38;;;;;;;;;;;;;;;;;;5097777;28;1211;-87
2021/12/18 11:21:03;;;;;;;;;;;;;;;;;;5099192;28;1011;-87
2021/12/18 11:23:28;;;;;;;;;;;;;;;;;;5097595;28;1335;-87
2021/12/18 11:25:54;;;;;;;;;;;;;;;;;;5088671;22;2068;-85
2021/12/18 11:28:19;;;;;;;;;;;;;;;;;;5069041;28;1965;-85
2021/12/18 11:30:44;;;;;;;;;;;;;;;;;;5052567;28;1212;-85
2021/12/18 11:33:09;;;;;;;;;;;;;;;;;;5052363;28;1207;-86
2021/12/18 11:35:36;;;;;;;;;;;;;;;;;;5052319;28;1227;-86
2021/12/18 11:38:01;;;;;;;;;;;;;;;;;;5052480;28;1231;-84
2021/12/18 11:40:26;;;;;;;;;;;;;;;;;;5053682;28;884;-85
2021/12/18 11:42:51;;;;;;;;;;;;;;;;;;5053765;28;983;-87
2021/12/18 11:45:17;;;;;;;;;;;;;;;;;;5053631;28;1204;-87
2021/12/18 11:47:42;;;;;;;;;;;;;;;;;;5052250;28;1894;-85
2021/12/18 11:50:07;;;;;;;;;;;;;;;;;;5052078;28;1305;-85
2021/12/18 11:52:32;;;;;;;;;;;;;;;;;;5052269;28;1178;-85
2021/12/18 11:54:57;;;;;;;;;;;;;;;;;;5054705;28;1264;-88
2021/12/18 11:57:22;;;;;;;;;;;;;;;;;;5053755;28;1334;-86
2021/12/18 11:59:47;;;;;;;;;;;;;;;;;;5053544;28;1003;-87
2021/12/18 12:02:12;;;;;;;;;;;;;;;;;;5053298;28;1038;-88
2021/12/18 12:04:38;;;;;;;;;;;;;;;;;;5056962;28;1269;-86
2021/12/18 12:07:03;;;;;;;;;;;;;;;;;;5056154;28;1882;-86
2021/12/18 12:09:36;;;;;;;;;;;;;;;;;;5057311;28;1015;-86
2021/12/18 12:12:01;;;;;;;;;;;;;;;;;;5056144;28;1256;-86
2021/12/18 12:14:26;;;;;;;;;;;;;;;;;;5056076;28;1459;-88
2021/12/18 12:16:51;;;;;;;;;;;;;;;;;;5057235;28;809;-88
2021/12/18 12:19:16;;;;;;;;;;;;;;;;;;5055824;28;1175;-88
2021/12/18 12:21:41;;;;;;;;;;;;;;;;;;5056024;28;1230;-87
2021/12/18 12:24:06;;;;;;;;;;;;;;;;;;5057099;28;1193;-84
2021/12/18 12:26:31;;;;;;;;;;;;;;;;;;5057150;28;1902;-86
2021/12/18 12:28:57;;;;;;;;;;;;;;;;;;5057078;28;1082;-85
2021/12/18 12:31:22;;;;;;;;;;;;;;;;;;5055790;28;1203;-87
2021/12/18 12:33:49;;;;;;;;;;;;;;;;;;5055613;28;1266;-88
2021/12/18 12:36:14;;;;;;;;;;;;;;;;;;5057251;28;825;-88
2021/12/18 12:38:39;;;;;;;;;;;;;;;;;;5055571;28;1304;-89
2021/12/18 12:41:05;;;;;;;;;;;;;;;;;;5056008;28;1334;-89
2021/12/18 12:43:30;;;;;;;;;;;;;;;;;;5056411;28;1350;-89
2021/12/18 12:46:15;;;;;;;;;;;;;;;;;;5049613;28;1116;-90
2021/12/18 12:48:40;;;;;;;;;;;;;;;;;;5055782;28;1941;-89
2021/12/18 12:51:06;;;;;;;;;;;;;;;;;;5055987;28;1361;-89
2021/12/18 12:53:31;;;;;;;;;;;;;;;;;;5055725;28;1498;-90
2021/12/18 12:55:56;;;;;;;;;;;;;;;;;;5055428;28;1293;-88
2021/12/18 12:58:21;;;;;;;;;;;;;;;;;;5062118;28;1427;-89
2021/12/18 13:00:46;;;;;;;;;;;;;;;;;;5075693;28;1587;-88
2021/12/18 13:03:11;;;;;;;;;;;;;;;;;;5075243;28;1311;-86
2021/12/18 13:05:37;;;;;;;;;;;;;;;;;;5075024;28;1208;-88
2021/12/18 13:08:02;;;;;;;;;;;;;;;;;;5075129;28;1890;-87
2021/12/18 13:10:27;;;;;;;;;;;;;;;;;;5075124;28;1105;-87
2021/12/18 13:12:52;;;;;;;;;;;;;;;;;;5075480;28;1080;-87
2021/12/18 13:15:17;;;;;;;;;;;;;;;;;;5074561;28;1288;-88
2021/12/18 13:17:42;;;;;;;;;;;;;;;;;;5075352;28;1156;-88
2021/12/18 13:20:07;;;;;;;;;;;;;;;;;;5075235;28;1190;-85
2021/12/18 13:22:33;;;;;;;;;;;;;;;;;;5075014;28;1064;-88
2021/12/18 13:41:03;;;;;;;;;;;;;;;;;;5036495;28;997;-89
2021/12/18 13:43:38;;;;;;;;;;;;;;;;;;5034841;28;1132;-90
2021/12/18 13:46:03;;;;;;;;;;;;;;;;;;5035090;28;1281;-89
2021/12/18 13:54:23;;;;;;;;;;;;;;;;;;;;;
2021/12/18 13:59:59;;;;;;;;;;;;;;;;;;5036011;28;611;-89
2021/12/18 14:02:24;;;;;;;;;;;;;;;;;;5035379;28;1194;-88
2021/12/18 14:07:39;;;;;;;;;;;;;;;;;;5013176;28;1891;-87
2021/12/18 14:10:08;;;;;;;;;;;;;;;;;;5029162;28;1307;-89
2021/12/18 14:12:33;;;;;;;;;;;;;;;;;;5034529;28;1513;-87
2021/12/18 14:15:01;;;;;;;;;;;;;;;;;;5035404;28;1391;-90
2021/12/18 14:20:27;;;;;;;;;;;;;;;;;;4993619;28;1631;-89
2021/12/18 14:22:58;;;;;;;;;;;;;;;;;;5033807;28;1323;-89
2021/12/18 14:28:10;;;;;;;;;;;;;;;;;;5034491;28;1965;-89
2021/12/18 14:33:34;;;;;;;;;;;;;;;;;;5022755;28;1177;-88
2021/12/18 14:36:05;;;;;;;;;;;;;;;;;;5033709;28;1257;-88
2021/12/18 14:44:19;;;;;;;;;;;;;;;;;;5005077;28;1263;-88
2021/12/18 14:46:44;;;;;;;;;;;;;;;;;;5012647;28;1949;-89
2021/12/18 14:54:44;;;;;;;;;;;;;;;;;;5030496;28;1561;-90
2021/12/18 15:00:08;;;;;;;;;;;;;;;;;;5003699;28;1010;-90
2021/12/18 15:02:33;;;;;;;;;;;;;;;;;;5014749;28;1183;-87
2021/12/18 15:04:58;;;;;;;;;;;;;;;;;;5016954;28;1430;-89
2021/12/18 15:07:25;;;;;;;;;;;;;;;;;;5034288;28;1894;-88
2021/12/18 15:09:50;;;;;;;;;;;;;;;;;;5032783;28;1192;-88
2021/12/18 15:12:17;;;;;;;;;;;;;;;;;;5032755;28;1171;-89
2021/12/18 15:14:42;;;;;;;;;;;;;;;;;;5034109;28;1287;-88
2021/12/18 15:17:07;;;;;;;;;;;;;;;;;;5037831;28;1589;-89
2021/12/18 15:19:32;;;;;;;;;;;;;;;;;;5034104;28;1264;-88
2021/12/18 15:21:57;;;;;;;;;;;;;;;;;;5033523;28;1211;-89
2021/12/18 15:24:22;;;;;;;;;;;;;;;;;;5033425;28;1291;-89
2021/12/18 15:26:48;;;;;;;;;;;;;;;;;;5034688;28;1894;-89
2021/12/18 15:29:13;;;;;;;;;;;;;;;;;;5033869;28;996;-89
2021/12/18 15:31:38;;;;;;;;;;;;;;;;;;5032970;28;1243;-88
2021/12/18 15:34:03;;;;;;;;;;;;;;;;;;5032578;28;1252;-88
2021/12/18 15:36:28;;;;;;;;;;;;;;;;;;5029884;28;1355;-89
2021/12/18 15:38:53;;;;;;;;;;;;;;;;;;5032051;28;1469;-88
2021/12/18 15:41:18;;;;;;;;;;;;;;;;;;5032642;28;1225;-88
2021/12/18 15:43:45;;;;;;;;;;;;;;;;;;5032710;28;1345;-88
2021/12/18 15:46:10;;;;;;;;;;;;;;;;;;5032524;28;1413;-87
2021/12/18 15:48:36;;;;;;;;;;;;;;;;;;5032651;28;1989;-88
2021/12/18 15:51:01;;;;;;;;;;;;;;;;;;5024511;28;1595;-88
2021/12/18 15:53:26;;;;;;;;;;;;;;;;;;5028562;28;1218;-87
2021/12/18 15:55:51;;;;;;;;;;;;;;;;;;5033345;28;1346;-87
2021/12/18 15:58:18;;;;;;;;;;;;;;;;;;5032193;28;1298;-88
2021/12/18 16:00:43;;;;;;;;;;;;;;;;;;5032715;28;1350;-88
2021/12/18 16:03:08;;;;;;;;;;;;;;;;;;5032993;28;1600;-88
2021/12/18 16:05:35;;;;;;;;;;;;;;;;;;5032268;28;1454;-87
2021/12/18 16:08:00;;;;;;;;;;;;;;;;;;5035575;28;1969;-89
2021/12/18 16:10:25;;;;;;;;;;;;;;;;;;5036221;28;1679;-89
2021/12/18 16:12:51;;;;;;;;;;;;;;;;;;5036172;28;1652;-89
2021/12/18 16:15:16;;;;;;;;;;;;;;;;;;5035853;28;1299;-88
2021/12/18 16:17:41;;;;;;;;;;;;;;;;;;5036109;28;1492;-88
2021/12/18 16:20:26;;;;;;;;;;;;;;;;;;;;;
2021/12/18 16:31:21;;;;;;;;;;;;;;;;;;;;;
2021/12/18 16:33:56;;;;;;;;;;;;;;;;;;5076464;28;1664;-87
2021/12/18 16:36:21;;;;;;;;;;;;;;;;;;5055009;28;1297;-88
2021/12/18 16:38:51;;;;;;;;;;;;;;;;;;5056442;28;856;-88
2021/12/18 16:41:34;;;;;;;;;;;;;;;;;;5056561;28;1131;-87
2021/12/18 16:43:59;;;;;;;;;;;;;;;;;;5056745;28;1291;-87
2021/12/18 16:46:26;;;;;;;;;;;;;;;;;;5055063;28;1668;-87
2021/12/18 16:48:51;;;;;;;;;;;;;;;;;;5054382;28;1969;-84
2021/12/18 16:51:16;;;;;;;;;;;;;;;;;;5058149;28;1144;-88
2021/12/18 16:53:41;;;;;;;;;;;;;;;;;;5058282;28;1549;-87
2021/12/18 16:56:06;;;;;;;;;;;;;;;;;;5060314;28;1315;-86
2021/12/18 16:58:31;;;;;;;;;;;;;;;;;;5060091;28;964;-88
2021/12/18 17:00:58;;;;;;;;;;;;;;;;;;5060173;28;1708;-87
2021/12/18 17:03:24;;;;;;;;;;;;;;;;;;5059634;28;1466;-86
2021/12/18 17:05:49;;;;;;;;;;;;;;;;;;5060721;28;1314;-87
2021/12/18 17:08:14;;;;;;;;;;;;;;;;;;5062416;28;1875;-88
2021/12/18 17:10:39;;;;;;;;;;;;;;;;;;5060878;28;1497;-87
2021/12/18 17:13:04;;;;;;;;;;;;;;;;;;5052190;28;1302;-89
2021/12/18 17:15:29;;;;;;;;;;;;;;;;;;5046217;28;1367;-87
2021/12/18 17:17:54;;;;;;;;;;;;;;;;;;5057229;28;1228;-86
2021/12/18 17:20:19;;;;;;;;;;;;;;;;;;5060836;28;1275;-88
2021/12/18 17:22:44;;;;;;;;;;;;;;;;;;5060018;28;995;-88
2021/12/18 17:32:54;;;;;;;;;;;;;;;;;;5058382;28;1554;-86
2021/12/18 17:35:19;;;;;;;;;;;;;;;;;;5043754;28;1236;-85
2021/12/18 17:37:44;;;;;;;;;;;;;;;;;;5042431;28;1486;-85
2021/12/18 17:40:09;;;;;;;;;;;;;;;;;;5023116;28;1424;-85
2021/12/18 17:42:34;;;;;;;;;;;;;;;;;;5023991;28;1376;-85
2021/12/18 17:44:59;;;;;;;;;;;;;;;;;;5046609;28;1626;-85
2021/12/18 17:47:24;;;;;;;;;;;;;;;;;;5046810;28;1994;-85
2021/12/18 17:49:49;;;;;;;;;;;;;;;;;;5048043;28;1366;-85
2021/12/18 17:52:14;;;;;;;;;;;;;;;;;;5048700;28;1561;-85
2021/12/18 17:54:39;;;;;;;;;;;;;;;;;;5046640;28;1279;-86
2021/12/18 17:57:04;;;;;;;;;;;;;;;;;;5039607;28;1522;-85
2021/12/18 17:59:29;;;;;;;;;;;;;;;;;;5027101;28;1654;-85
2021/12/18 18:01:55;;;;;;;;;;;;;;;;;;5024525;28;1168;-86
2021/12/18 18:04:20;;;;;;;;;;;;;;;;;;5024500;28;1351;-86
2021/12/18 18:06:45;;;;;;;;;;;;;;;;;;5029660;28;1918;-86
2021/12/18 18:09:11;;;;;;;;;;;;;;;;;;5050046;28;1019;-85
2021/12/18 18:11:36;;;;;;;;;;;;;;;;;;5055455;28;841;-86
2021/12/18 18:14:01;;;;;;;;;;;;;;;;;;5027818;28;1502;-85
2021/12/18 18:16:28;;;;;;;;;;;;;;;;;;5060368;28;1427;-86
2021/12/18 18:18:54;;;;;;;;;;;;;;;;;;5049041;28;1455;-86
2021/12/18 18:21:19;;;;;;;;;;;;;;;;;;5038514;28;845;-85
2021/12/18 18:23:44;;;;;;;;;;;;;;;;;;5040578;28;825;-86
2021/12/18 18:26:09;;;;;;;;;;;;;;;;;;5034851;28;1471;-86
2021/12/18 18:28:35;;;;;;;;;;;;;;;;;;5035384;28;1894;-85
2021/12/18 18:31:01;;;;;;;;;;;;;;;;;;5051868;28;1455;-85
2021/12/18 18:33:27;;;;;;;;;;;;;;;;;;5046312;28;1431;-85
2021/12/18 18:35:52;;;;;;;;;;;;;;;;;;5037011;28;1375;-86
2021/12/18 18:38:17;;;;;;;;;;;;;;;;;;5024428;28;1551;-86
2021/12/18 18:40:44;;;;;;;;;;;;;;;;;;5028565;28;1360;-85